14:39
Airports
Links
Donate
Help keep this website running!
PayPal
Bitcoin
METAR
LEMD 181430Z VRB02KT CAVOK 11/00 Q1028 NOSIG
Current Weather Conditions at LEMD
VFR 14:30:00 18-12-17
Altimeter:30.35 hg
Temp:11.0°c 52°f
Dew point:0.0°c 32°f
Wind:2 knots, 2.3 mph, 1 m/s,
Variable direction
Visibility:6.21 statute miles
(CAVOK)
No significant weather changes expected within 2 hours.
Past METAR reports
VFR 14:00:00 18-12-17
Altimeter:30.38 hg
Temp:11.0°c 52°f
Dew point:0.0°c 32°f
Wind:3 knots, 3.5 mph, 2 m/s, from 130°
Visibility:6.21 statute miles
(CAVOK)
No significant weather changes expected within 2 hours.
LEMD 181400Z 13003KT 070V210 CAVOK 11/00 Q1029 NOSIG
VFR 13:30:00 18-12-17
Altimeter:30.38 hg
Temp:10.0°c 50°f
Dew point:0.0°c 32°f
Wind:3 knots, 3.5 mph, 2 m/s, from 170°
Visibility:6.21 statute miles
(CAVOK)
No significant weather changes expected within 2 hours.
LEMD 181330Z 17003KT CAVOK 10/M00 Q1029 NOSIG
VFR 13:00:00 18-12-17
Altimeter:30.41 hg
Temp:9.0°c 48°f
Dew point:0.0°c 32°f
Wind:3 knots, 3.5 mph, 2 m/s, from 220°
Visibility:6.21 statute miles
(CAVOK)
No significant weather changes expected within 2 hours.
LEMD 181300Z 22003KT 160V310 CAVOK 09/M00 Q1030 NOSIG
VFR 12:30:00 18-12-17
Altimeter:30.44 hg
Temp:8.0°c 46°f
Dew point:-1.0°c 30°f
Wind:1 knots, 1.2 mph, 1 m/s, from 270°
Visibility:6.21 statute miles
(CAVOK)
No significant weather changes expected within 2 hours.
LEMD 181230Z 27001KT CAVOK 08/M01 Q1031 NOSIG
VFR 12:00:00 18-12-17
Altimeter:30.47 hg
Temp:7.0°c 45°f
Dew point:0.0°c 32°f
Wind:2 knots, 2.3 mph, 1 m/s, from 240°
Visibility:6.21 statute miles
(CAVOK)
No significant weather changes expected within 2 hours.
LEMD 181200Z 24002KT CAVOK 07/M00 Q1032 NOSIG
VFR 11:30:00 18-12-17
Altimeter:30.47 hg
Temp:6.0°c 43°f
Dew point:0.0°c 32°f
Wind:3 knots, 3.5 mph, 2 m/s, from 170°
Visibility:6.21 statute miles
(CAVOK)
No significant weather changes expected within 2 hours.
LEMD 181130Z 17003KT 130V240 CAVOK 06/M00 Q1032 NOSIG
TAF
TAF LEMD 181100Z 1812/1918 VRB05KT 9999 FEW035 TX12/1915Z TNM01/1907Z PROB30 TEMPO 1820/1906 BKN025 TEMPO 1905/1913 02010KT
Forecast at LEMD
12:00 18-12-17 to 18:00 19-12-17
Wind:5 Knots from 360°
Visibility:6.21 statute miles
3500FEW A few
TEMPO 20:00 18-12-17 to 06:00 19-12-17
30%
2500BKN Broken
TEMPO 05:00 19-12-17 to 13:00 19-12-17
Wind:10 Knots from 20°